EDW12R LEMH-LSZH
Flight info
| Callsign | EDW12R |
|---|---|
| Flight time | 1h 28m |
| Altitude | 37000 |
| Route | MEROS3D MEROS N853 LUMAS DCT MAXIR DCT LUSOL DCT BODRU/N0440F320 DCT OKTET DCT IRMAR DCT KINES DCT VANAS DCT MOBLO DCT LAMUR DCT GUDAX Z57 DOPIL DOPIL2G |
| Aircraft | A320/M-VGDW/C |
Departure
| Time | 2026-04-26 14:11 |
|---|---|
| Airport | Menorca Airport (LEMH) |
Arrival
| Time | 2026-04-26 15:39 |
|---|---|
| Airport | Zürich Airport (LSZH) |
| Time | Latitude | Longitude | Altitude | Speed | Heading |
|---|---|---|---|---|---|
| 2026-04-26 14:05 | 39.86574 | 4.22433 | 303 ft | 0 kts | 98° |
| 2026-04-26 14:07 | 39.86575 | 4.22426 | 303 ft | 3 kts | 98° |
| 2026-04-26 14:08 | 39.86578 | 4.22397 | 303 ft | 3 kts | 98° |
| 2026-04-26 14:08 | 39.86581 | 4.22369 | 303 ft | 3 kts | 98° |
| 2026-04-26 14:08 | 39.86584 | 4.22340 | 302 ft | 3 kts | 43° |
| 2026-04-26 14:08 | 39.86577 | 4.22336 | 301 ft | 0 kts | 360° |
| 2026-04-26 14:09 | 39.86627 | 4.22343 | 303 ft | 11 kts | 9° |
| 2026-04-26 14:09 | 39.86739 | 4.22368 | 305 ft | 21 kts | 11° |
| 2026-04-26 14:09 | 39.86880 | 4.22388 | 306 ft | 17 kts | 341° |
| 2026-04-26 14:10 | 39.86945 | 4.22263 | 306 ft | 18 kts | 321° |
| 2026-04-26 14:10 | 39.87104 | 4.22276 | 308 ft | 30 kts | 8° |
| 2026-04-26 14:10 | 39.87354 | 4.22319 | 310 ft | 33 kts | 340° |
| 2026-04-26 14:10 | 39.87349 | 4.22107 | 310 ft | 32 kts | 214° |
| 2026-04-26 14:11 | 39.86253 | 4.21877 | 299 ft | 132 kts | 188° |
| 2026-04-26 14:11 | 39.85251 | 4.21625 | 597 ft | 150 kts | 189° |
| 2026-04-26 14:11 | 39.84256 | 4.21367 | 1292 ft | 141 kts | 189° |
| 2026-04-26 14:12 | 39.83331 | 4.21156 | 2053 ft | 131 kts | 188° |
| 2026-04-26 14:12 | 39.82252 | 4.21241 | 1863 ft | 192 kts | 155° |
| 2026-04-26 14:12 | 39.80917 | 4.22227 | 1756 ft | 245 kts | 148° |
| 2026-04-26 14:12 | 39.79347 | 4.23540 | 1782 ft | 291 kts | 147° |
| 2026-04-26 14:13 | 39.76441 | 4.27937 | 1823 ft | 354 kts | 109° |
| 2026-04-26 14:13 | 39.76107 | 4.31080 | 2151 ft | 358 kts | 86° |
| 2026-04-26 14:13 | 39.76683 | 4.34016 | 2578 ft | 317 kts | 63° |
| 2026-04-26 14:14 | 39.78067 | 4.36255 | 3025 ft | 332 kts | 39° |
| 2026-04-26 14:14 | 39.80168 | 4.37684 | 3472 ft | 351 kts | 17° |
| 2026-04-26 14:14 | 39.82599 | 4.37982 | 3890 ft | 355 kts | 354° |
| 2026-04-26 14:14 | 39.85017 | 4.37238 | 4293 ft | 359 kts | 343° |
| 2026-04-26 14:15 | 39.87400 | 4.36204 | 4691 ft | 363 kts | 341° |
| 2026-04-26 14:15 | 39.89787 | 4.35114 | 5082 ft | 364 kts | 341° |
| 2026-04-26 14:15 | 39.92149 | 4.34039 | 5481 ft | 365 kts | 342° |
| 2026-04-26 14:15 | 39.94571 | 4.33033 | 5883 ft | 366 kts | 345° |
| 2026-04-26 14:16 | 39.97047 | 4.32230 | 6284 ft | 367 kts | 349° |
| 2026-04-26 14:16 | 39.99561 | 4.31653 | 6683 ft | 367 kts | 353° |
| 2026-04-26 14:16 | 40.02109 | 4.31276 | 7061 ft | 369 kts | 356° |
| 2026-04-26 14:16 | 40.04684 | 4.31072 | 7450 ft | 372 kts | 359° |
| 2026-04-26 14:17 | 40.07276 | 4.31009 | 7840 ft | 374 kts | 1° |
| 2026-04-26 14:17 | 40.09881 | 4.31060 | 8238 ft | 375 kts | 2° |
| 2026-04-26 14:17 | 40.12460 | 4.31200 | 8636 ft | 377 kts | 3° |
| 2026-04-26 14:17 | 40.15096 | 4.31414 | 9045 ft | 381 kts | 4° |
| 2026-04-26 14:18 | 40.17746 | 4.31686 | 9458 ft | 384 kts | 5° |
| 2026-04-26 14:18 | 40.20410 | 4.32004 | 9878 ft | 385 kts | 6° |
| 2026-04-26 14:18 | 40.23081 | 4.32356 | 10268 ft | 387 kts | 6° |
| 2026-04-26 14:18 | 40.25768 | 4.32733 | 10643 ft | 390 kts | 6° |
| 2026-04-26 14:19 | 40.28474 | 4.33132 | 11035 ft | 392 kts | 7° |
| 2026-04-26 14:19 | 40.31187 | 4.33546 | 11420 ft | 393 kts | 7° |
| 2026-04-26 14:19 | 40.33872 | 4.33967 | 11809 ft | 395 kts | 7° |
| 2026-04-26 14:19 | 40.36603 | 4.34405 | 12204 ft | 398 kts | 7° |
| 2026-04-26 14:20 | 40.39362 | 4.34856 | 12608 ft | 400 kts | 7° |
| 2026-04-26 14:20 | 40.42129 | 4.35313 | 13017 ft | 402 kts | 7° |
| 2026-04-26 14:20 | 40.44914 | 4.35779 | 13425 ft | 404 kts | 8° |
| 2026-04-26 14:20 | 40.47710 | 4.36251 | 13845 ft | 406 kts | 8° |
| 2026-04-26 14:21 | 40.50513 | 4.36787 | 14232 ft | 408 kts | 9° |
| 2026-04-26 14:21 | 40.53323 | 4.37397 | 14607 ft | 411 kts | 10° |
| 2026-04-26 14:21 | 40.56146 | 4.38047 | 14991 ft | 413 kts | 10° |
| 2026-04-26 14:21 | 40.58981 | 4.38717 | 15368 ft | 415 kts | 10° |
| 2026-04-26 14:22 | 40.61792 | 4.39390 | 15752 ft | 417 kts | 11° |
| 2026-04-26 14:22 | 40.64658 | 4.40083 | 16148 ft | 420 kts | 10° |
| 2026-04-26 14:22 | 40.67540 | 4.40781 | 16546 ft | 423 kts | 10° |
| 2026-04-26 14:22 | 40.70440 | 4.41485 | 16954 ft | 425 kts | 10° |
| 2026-04-26 14:23 | 40.73356 | 4.42194 | 17364 ft | 428 kts | 10° |
| 2026-04-26 14:23 | 40.76297 | 4.42908 | 17779 ft | 431 kts | 10° |
| 2026-04-26 14:23 | 40.79263 | 4.43629 | 18199 ft | 435 kts | 10° |
| 2026-04-26 14:23 | 40.82251 | 4.44355 | 18599 ft | 439 kts | 10° |
| 2026-04-26 14:24 | 40.85221 | 4.45077 | 18966 ft | 441 kts | 10° |
| 2026-04-26 14:24 | 40.88247 | 4.45810 | 19341 ft | 443 kts | 10° |
| 2026-04-26 14:24 | 40.91281 | 4.46541 | 19722 ft | 444 kts | 10° |
| 2026-04-26 14:24 | 40.94330 | 4.47278 | 20109 ft | 447 kts | 10° |
| 2026-04-26 14:25 | 40.97397 | 4.48019 | 20498 ft | 450 kts | 10° |
| 2026-04-26 14:25 | 41.00485 | 4.48767 | 20892 ft | 453 kts | 10° |
| 2026-04-26 14:25 | 41.03593 | 4.49522 | 21296 ft | 455 kts | 10° |
| 2026-04-26 14:25 | 41.06716 | 4.50279 | 21695 ft | 457 kts | 10° |
| 2026-04-26 14:26 | 41.09851 | 4.51039 | 22118 ft | 459 kts | 10° |
| 2026-04-26 14:26 | 41.12959 | 4.51791 | 22533 ft | 461 kts | 10° |
| 2026-04-26 14:26 | 41.16119 | 4.52559 | 22957 ft | 462 kts | 9° |
| 2026-04-26 14:26 | 41.19284 | 4.53328 | 23386 ft | 463 kts | 10° |
| 2026-04-26 14:27 | 41.22460 | 4.54102 | 23807 ft | 464 kts | 10° |
| 2026-04-26 14:27 | 41.25637 | 4.54880 | 24171 ft | 465 kts | 9° |
| 2026-04-26 14:27 | 41.28819 | 4.55662 | 24543 ft | 465 kts | 9° |
| 2026-04-26 14:27 | 41.32003 | 4.56443 | 24917 ft | 465 kts | 9° |
| 2026-04-26 14:28 | 41.35187 | 4.57224 | 25300 ft | 465 kts | 9° |
| 2026-04-26 14:28 | 41.38370 | 4.58006 | 25686 ft | 465 kts | 9° |
| 2026-04-26 14:28 | 41.41508 | 4.58779 | 26073 ft | 465 kts | 9° |
| 2026-04-26 14:28 | 41.44689 | 4.59562 | 26470 ft | 464 kts | 9° |
| 2026-04-26 14:29 | 41.47865 | 4.60345 | 26871 ft | 464 kts | 9° |
| 2026-04-26 14:29 | 41.51034 | 4.61128 | 27279 ft | 463 kts | 9° |
| 2026-04-26 14:29 | 41.54201 | 4.61911 | 27695 ft | 462 kts | 9° |
| 2026-04-26 14:29 | 41.57357 | 4.62694 | 28115 ft | 461 kts | 9° |
| 2026-04-26 14:30 | 41.60505 | 4.63475 | 28542 ft | 460 kts | 9° |
| 2026-04-26 14:30 | 41.63647 | 4.64255 | 28966 ft | 458 kts | 9° |
| 2026-04-26 14:30 | 41.66734 | 4.65022 | 29414 ft | 457 kts | 9° |
| 2026-04-26 14:30 | 41.69838 | 4.65818 | 29844 ft | 455 kts | 12° |
| 2026-04-26 14:31 | 41.72816 | 4.67280 | 30315 ft | 455 kts | 24° |
| 2026-04-26 14:31 | 41.75640 | 4.69186 | 30700 ft | 454 kts | 26° |
| 2026-04-26 14:31 | 41.78406 | 4.71209 | 31103 ft | 452 kts | 27° |
| 2026-04-26 14:31 | 41.81136 | 4.73279 | 31491 ft | 449 kts | 28° |
| 2026-04-26 14:32 | 41.83833 | 4.75367 | 31905 ft | 447 kts | 28° |
| 2026-04-26 14:32 | 41.86508 | 4.77463 | 32307 ft | 444 kts | 28° |
| 2026-04-26 14:32 | 41.89159 | 4.79558 | 32728 ft | 441 kts | 28° |
| 2026-04-26 14:32 | 41.91789 | 4.81646 | 33154 ft | 437 kts | 29° |
| 2026-04-26 14:33 | 41.94395 | 4.83725 | 33585 ft | 434 kts | 29° |
| 2026-04-26 14:33 | 41.96953 | 4.85772 | 33840 ft | 434 kts | 29° |
| 2026-04-26 14:33 | 41.99553 | 4.87856 | 34063 ft | 436 kts | 29° |
| 2026-04-26 14:33 | 42.02163 | 4.89954 | 34229 ft | 438 kts | 29° |
| 2026-04-26 14:34 | 42.04775 | 4.92058 | 34445 ft | 438 kts | 29° |
| 2026-04-26 14:34 | 42.07394 | 4.94173 | 34604 ft | 440 kts | 29° |
| 2026-04-26 14:34 | 42.10025 | 4.96300 | 34764 ft | 442 kts | 29° |
| 2026-04-26 14:34 | 42.12661 | 4.98434 | 34996 ft | 442 kts | 29° |
| 2026-04-26 14:35 | 42.15300 | 5.00574 | 35153 ft | 444 kts | 29° |
| 2026-04-26 14:35 | 42.17949 | 5.02724 | 35299 ft | 445 kts | 29° |
| 2026-04-26 14:35 | 42.20571 | 5.04856 | 35488 ft | 446 kts | 29° |
| 2026-04-26 14:35 | 42.23233 | 5.07023 | 35628 ft | 448 kts | 29° |
| 2026-04-26 14:36 | 42.25900 | 5.09197 | 35811 ft | 449 kts | 29° |
| 2026-04-26 14:36 | 42.28575 | 5.11380 | 35993 ft | 450 kts | 29° |
| 2026-04-26 14:36 | 42.31263 | 5.13574 | 36072 ft | 454 kts | 29° |
| 2026-04-26 14:37 | 42.36717 | 5.18036 | 36116 ft | 463 kts | 29° |
| 2026-04-26 14:37 | 42.42247 | 5.22570 | 36123 ft | 473 kts | 29° |
| 2026-04-26 14:38 | 42.47931 | 5.27243 | 36125 ft | 483 kts | 29° |
| 2026-04-26 14:38 | 42.53728 | 5.32018 | 36121 ft | 492 kts | 29° |
| 2026-04-26 14:39 | 42.59619 | 5.36885 | 36120 ft | 497 kts | 29° |
| 2026-04-26 14:39 | 42.65487 | 5.41746 | 36120 ft | 498 kts | 29° |
| 2026-04-26 14:40 | 42.71391 | 5.46648 | 36121 ft | 498 kts | 29° |
| 2026-04-26 14:40 | 42.77303 | 5.51567 | 36119 ft | 498 kts | 29° |
| 2026-04-26 14:41 | 42.83211 | 5.56494 | 36121 ft | 498 kts | 29° |
| 2026-04-26 14:41 | 42.89079 | 5.61398 | 36124 ft | 498 kts | 29° |
| 2026-04-26 14:42 | 42.94987 | 5.66347 | 36120 ft | 498 kts | 29° |
| 2026-04-26 14:42 | 43.00896 | 5.71306 | 36125 ft | 499 kts | 29° |
| 2026-04-26 14:43 | 43.06805 | 5.76279 | 36124 ft | 499 kts | 29° |
| 2026-04-26 14:43 | 43.12710 | 5.81260 | 36121 ft | 499 kts | 29° |
| 2026-04-26 14:44 | 43.18575 | 5.86218 | 36125 ft | 499 kts | 29° |
| 2026-04-26 14:44 | 43.24481 | 5.91222 | 36122 ft | 499 kts | 29° |
| 2026-04-26 14:45 | 43.30384 | 5.96238 | 36124 ft | 499 kts | 30° |
| 2026-04-26 14:45 | 43.36281 | 6.01254 | 36121 ft | 499 kts | 28° |
| 2026-04-26 14:45 | 43.39301 | 6.03124 | 36137 ft | 493 kts | 13° |
| 2026-04-26 14:46 | 43.42644 | 6.04063 | 36134 ft | 490 kts | 5° |
| 2026-04-26 14:46 | 43.49367 | 6.05066 | 36125 ft | 489 kts | 2° |
| 2026-04-26 14:47 | 43.56146 | 6.05789 | 36121 ft | 488 kts | 1° |
| 2026-04-26 14:47 | 43.62923 | 6.06445 | 36116 ft | 488 kts | 1° |
| 2026-04-26 14:48 | 43.69708 | 6.07096 | 36115 ft | 489 kts | 1° |
| 2026-04-26 14:48 | 43.76402 | 6.08337 | 36134 ft | 494 kts | 16° |
| 2026-04-26 14:49 | 43.82783 | 6.11929 | 36121 ft | 496 kts | 22° |
| 2026-04-26 14:49 | 43.89038 | 6.15985 | 36123 ft | 496 kts | 23° |
| 2026-04-26 14:50 | 43.95250 | 6.20168 | 36123 ft | 496 kts | 24° |
| 2026-04-26 14:50 | 44.01403 | 6.24367 | 36125 ft | 496 kts | 24° |
| 2026-04-26 14:51 | 44.07594 | 6.28619 | 36121 ft | 496 kts | 24° |
| 2026-04-26 14:51 | 44.13782 | 6.32882 | 36123 ft | 496 kts | 24° |
| 2026-04-26 14:52 | 44.19974 | 6.37157 | 36125 ft | 497 kts | 24° |
| 2026-04-26 14:52 | 44.26136 | 6.41409 | 36120 ft | 498 kts | 24° |
| 2026-04-26 14:53 | 44.32340 | 6.45701 | 36125 ft | 498 kts | 24° |
| 2026-04-26 14:53 | 44.38548 | 6.50009 | 36121 ft | 498 kts | 24° |
| 2026-04-26 14:54 | 44.44385 | 6.54071 | 36120 ft | 498 kts | 24° |
| 2026-04-26 14:54 | 44.50548 | 6.58369 | 36121 ft | 499 kts | 24° |
| 2026-04-26 14:55 | 44.56764 | 6.62711 | 36123 ft | 499 kts | 24° |
| 2026-04-26 14:55 | 44.62987 | 6.67069 | 36119 ft | 500 kts | 24° |
| 2026-04-26 14:56 | 44.69211 | 6.71438 | 36125 ft | 500 kts | 24° |
| 2026-04-26 14:56 | 44.75398 | 6.75795 | 36119 ft | 500 kts | 24° |
| 2026-04-26 14:56 | 44.78581 | 6.77731 | 36135 ft | 497 kts | 13° |
| 2026-04-26 14:57 | 44.81966 | 6.78525 | 36149 ft | 492 kts | 0° |
| 2026-04-26 14:57 | 44.88789 | 6.78517 | 36117 ft | 489 kts | 355° |
| 2026-04-26 14:58 | 44.95581 | 6.78124 | 36130 ft | 489 kts | 355° |
| 2026-04-26 14:58 | 45.02370 | 6.77643 | 36129 ft | 488 kts | 354° |
| 2026-04-26 14:59 | 45.09098 | 6.77159 | 36127 ft | 487 kts | 354° |
| 2026-04-26 14:59 | 45.15869 | 6.76682 | 36140 ft | 487 kts | 355° |
| 2026-04-26 15:00 | 45.22631 | 6.76218 | 36138 ft | 486 kts | 355° |
| 2026-04-26 15:00 | 45.29391 | 6.75767 | 36135 ft | 486 kts | 355° |
| 2026-04-26 15:01 | 45.36100 | 6.75323 | 36135 ft | 486 kts | 355° |
| 2026-04-26 15:01 | 45.42853 | 6.74874 | 36143 ft | 486 kts | 355° |
| 2026-04-26 15:02 | 45.49601 | 6.74418 | 36145 ft | 485 kts | 355° |
| 2026-04-26 15:02 | 45.56347 | 6.73956 | 36145 ft | 485 kts | 354° |
| 2026-04-26 15:03 | 45.63037 | 6.73496 | 36130 ft | 485 kts | 354° |
| 2026-04-26 15:03 | 45.69772 | 6.73038 | 36135 ft | 484 kts | 354° |
| 2026-04-26 15:04 | 45.76496 | 6.72576 | 36139 ft | 484 kts | 355° |
| 2026-04-26 15:04 | 45.79859 | 6.72817 | 36153 ft | 488 kts | 9° |
| 2026-04-26 15:04 | 45.83129 | 6.74194 | 36156 ft | 491 kts | 18° |
| 2026-04-26 15:05 | 45.89464 | 6.77903 | 36134 ft | 492 kts | 21° |
| 2026-04-26 15:05 | 45.95697 | 6.81872 | 35798 ft | 495 kts | 22° |
| 2026-04-26 15:05 | 45.98827 | 6.83904 | 35568 ft | 494 kts | 22° |
| 2026-04-26 15:06 | 46.01963 | 6.85951 | 35312 ft | 494 kts | 22° |
| 2026-04-26 15:06 | 46.05098 | 6.88006 | 35061 ft | 495 kts | 22° |
| 2026-04-26 15:06 | 46.08229 | 6.90064 | 34806 ft | 495 kts | 22° |
| 2026-04-26 15:06 | 46.11364 | 6.92129 | 34558 ft | 496 kts | 22° |
| 2026-04-26 15:07 | 46.17638 | 6.96270 | 34053 ft | 497 kts | 22° |
| 2026-04-26 15:07 | 46.20737 | 6.98318 | 33785 ft | 497 kts | 22° |
| 2026-04-26 15:07 | 46.23880 | 7.00399 | 33506 ft | 497 kts | 23° |
| 2026-04-26 15:08 | 46.26874 | 7.02908 | 33255 ft | 501 kts | 37° |
| 2026-04-26 15:08 | 46.29468 | 7.06291 | 33002 ft | 503 kts | 41° |
| 2026-04-26 15:08 | 46.32078 | 7.09660 | 32735 ft | 504 kts | 39° |
| 2026-04-26 15:08 | 46.34854 | 7.12714 | 32482 ft | 502 kts | 32° |
| 2026-04-26 15:09 | 46.37645 | 7.15664 | 32229 ft | 503 kts | 36° |
| 2026-04-26 15:09 | 46.40528 | 7.18502 | 31977 ft | 499 kts | 24° |
| 2026-04-26 15:09 | 46.43729 | 7.20442 | 31734 ft | 499 kts | 21° |
| 2026-04-26 15:09 | 46.46871 | 7.22607 | 31494 ft | 501 kts | 25° |
| 2026-04-26 15:10 | 46.49963 | 7.24955 | 31256 ft | 502 kts | 26° |
| 2026-04-26 15:10 | 46.51977 | 7.26600 | 31093 ft | 503 kts | 31° |
| 2026-04-26 15:10 | 46.55622 | 7.30893 | 30771 ft | 506 kts | 40° |
| 2026-04-26 15:10 | 46.58153 | 7.34340 | 30523 ft | 492 kts | 42° |
| 2026-04-26 15:11 | 46.60601 | 7.37780 | 30271 ft | 489 kts | 42° |
| 2026-04-26 15:11 | 46.63046 | 7.41246 | 29996 ft | 491 kts | 42° |
| 2026-04-26 15:11 | 46.65465 | 7.44672 | 29727 ft | 493 kts | 42° |
| 2026-04-26 15:11 | 46.67933 | 7.48154 | 29446 ft | 495 kts | 42° |
| 2026-04-26 15:12 | 46.70413 | 7.51627 | 29143 ft | 496 kts | 42° |
| 2026-04-26 15:12 | 46.72915 | 7.55112 | 28771 ft | 497 kts | 41° |
| 2026-04-26 15:12 | 46.75420 | 7.58580 | 28386 ft | 497 kts | 41° |
| 2026-04-26 15:12 | 46.77932 | 7.62041 | 27996 ft | 497 kts | 41° |
| 2026-04-26 15:13 | 46.80464 | 7.65514 | 27366 ft | 502 kts | 41° |
| 2026-04-26 15:13 | 46.83024 | 7.69016 | 26600 ft | 504 kts | 41° |
| 2026-04-26 15:13 | 46.85578 | 7.72505 | 25857 ft | 502 kts | 41° |
| 2026-04-26 15:13 | 46.88080 | 7.75917 | 25141 ft | 496 kts | 41° |
| 2026-04-26 15:14 | 46.90585 | 7.79331 | 24437 ft | 490 kts | 41° |
| 2026-04-26 15:14 | 46.93068 | 7.82712 | 23746 ft | 486 kts | 41° |
| 2026-04-26 15:14 | 46.95536 | 7.86071 | 22931 ft | 482 kts | 41° |
| 2026-04-26 15:14 | 46.97978 | 7.89389 | 22138 ft | 476 kts | 41° |
| 2026-04-26 15:15 | 47.00387 | 7.92668 | 21367 ft | 470 kts | 41° |
| 2026-04-26 15:15 | 47.02766 | 7.95908 | 20625 ft | 465 kts | 41° |
| 2026-04-26 15:15 | 47.05093 | 7.99077 | 19904 ft | 461 kts | 41° |
| 2026-04-26 15:15 | 47.07426 | 8.02274 | 19135 ft | 457 kts | 41° |
| 2026-04-26 15:16 | 47.09721 | 8.05461 | 18326 ft | 450 kts | 41° |
| 2026-04-26 15:16 | 47.11962 | 8.08597 | 17438 ft | 441 kts | 42° |
| 2026-04-26 15:16 | 47.14156 | 8.11680 | 16570 ft | 433 kts | 42° |
| 2026-04-26 15:16 | 47.16309 | 8.14713 | 15720 ft | 426 kts | 42° |
| 2026-04-26 15:17 | 47.18437 | 8.17716 | 14899 ft | 420 kts | 42° |
| 2026-04-26 15:17 | 47.19824 | 8.19673 | 14362 ft | 416 kts | 42° |
| 2026-04-26 15:17 | 47.22928 | 8.22893 | 13233 ft | 405 kts | 21° |
| 2026-04-26 15:17 | 47.25584 | 8.23851 | 12389 ft | 397 kts | 2° |
| 2026-04-26 15:18 | 47.28294 | 8.23481 | 11579 ft | 389 kts | 343° |
| 2026-04-26 15:18 | 47.30730 | 8.21861 | 10773 ft | 383 kts | 327° |
| 2026-04-26 15:18 | 47.32929 | 8.19692 | 9956 ft | 379 kts | 324° |
| 2026-04-26 15:18 | 47.35074 | 8.17469 | 9166 ft | 374 kts | 324° |
| 2026-04-26 15:19 | 47.37178 | 8.15333 | 8704 ft | 361 kts | 325° |
| 2026-04-26 15:19 | 47.39242 | 8.13328 | 8236 ft | 350 kts | 327° |
| 2026-04-26 15:19 | 47.41279 | 8.11563 | 7774 ft | 340 kts | 337° |
| 2026-04-26 15:19 | 47.43540 | 8.10854 | 7419 ft | 328 kts | 1° |
| 2026-04-26 15:20 | 47.45736 | 8.11273 | 7259 ft | 311 kts | 11° |
| 2026-04-26 15:20 | 47.47811 | 8.11934 | 7021 ft | 299 kts | 12° |
| 2026-04-26 15:20 | 47.49813 | 8.12572 | 6772 ft | 289 kts | 12° |
| 2026-04-26 15:20 | 47.51759 | 8.13127 | 6514 ft | 282 kts | 10° |
| 2026-04-26 15:21 | 47.53681 | 8.13577 | 6161 ft | 278 kts | 8° |
| 2026-04-26 15:21 | 47.55603 | 8.13930 | 5763 ft | 279 kts | 7° |
| 2026-04-26 15:21 | 47.57506 | 8.14198 | 5617 ft | 270 kts | 5° |
| 2026-04-26 15:21 | 47.59335 | 8.14396 | 5512 ft | 264 kts | 5° |
| 2026-04-26 15:22 | 47.61047 | 8.14992 | 5413 ft | 246 kts | 29° |
| 2026-04-26 15:22 | 47.62217 | 8.16675 | 5304 ft | 232 kts | 61° |
| 2026-04-26 15:22 | 47.62536 | 8.18975 | 5191 ft | 233 kts | 95° |
| 2026-04-26 15:22 | 47.62027 | 8.21247 | 5081 ft | 233 kts | 112° |
| 2026-04-26 15:23 | 47.61393 | 8.23450 | 4830 ft | 230 kts | 110° |
| 2026-04-26 15:23 | 47.60854 | 8.25629 | 4585 ft | 221 kts | 105° |
| 2026-04-26 15:23 | 47.60440 | 8.27789 | 4344 ft | 215 kts | 103° |
| 2026-04-26 15:23 | 47.60041 | 8.29856 | 4285 ft | 204 kts | 104° |
| 2026-04-26 15:24 | 47.59647 | 8.31826 | 4274 ft | 200 kts | 104° |
| 2026-04-26 15:24 | 47.59242 | 8.33868 | 4232 ft | 211 kts | 105° |
| 2026-04-26 15:24 | 47.58823 | 8.35947 | 4196 ft | 216 kts | 104° |
| 2026-04-26 15:24 | 47.58175 | 8.37988 | 4231 ft | 226 kts | 122° |
| 2026-04-26 15:25 | 47.57247 | 8.39903 | 4064 ft | 234 kts | 125° |
| 2026-04-26 15:25 | 47.56572 | 8.41196 | 3868 ft | 243 kts | 126° |
| 2026-04-26 15:25 | 47.55113 | 8.43893 | 3450 ft | 258 kts | 128° |
| 2026-04-26 15:25 | 47.53870 | 8.45830 | 3027 ft | 257 kts | 134° |
| 2026-04-26 15:26 | 47.52593 | 8.47620 | 2678 ft | 248 kts | 134° |
| 2026-04-26 15:26 | 47.51421 | 8.49223 | 2324 ft | 209 kts | 134° |
| 2026-04-26 15:26 | 47.50419 | 8.50588 | 2198 ft | 199 kts | 135° |
| 2026-04-26 15:26 | 47.49386 | 8.51980 | 2714 ft | 207 kts | 135° |
| 2026-04-26 15:27 | 47.48287 | 8.53432 | 3283 ft | 226 kts | 135° |
| 2026-04-26 15:27 | 47.47099 | 8.55046 | 4026 ft | 237 kts | 134° |
| 2026-04-26 15:27 | 47.45910 | 8.56755 | 4887 ft | 241 kts | 133° |
| 2026-04-26 15:27 | 47.44572 | 8.58417 | 5300 ft | 269 kts | 149° |
| 2026-04-26 15:28 | 47.42639 | 8.59260 | 5009 ft | 314 kts | 175° |
| 2026-04-26 15:28 | 47.40473 | 8.58769 | 4669 ft | 320 kts | 200° |
| 2026-04-26 15:28 | 47.38640 | 8.57022 | 4404 ft | 318 kts | 225° |
| 2026-04-26 15:28 | 47.37476 | 8.54324 | 4505 ft | 311 kts | 251° |
| 2026-04-26 15:29 | 47.37200 | 8.51205 | 4852 ft | 308 kts | 277° |
| 2026-04-26 15:29 | 47.37839 | 8.48206 | 5074 ft | 309 kts | 302° |
| 2026-04-26 15:29 | 47.40828 | 8.43457 | 5221 ft | 326 kts | 318° |
| 2026-04-26 15:30 | 47.44293 | 8.38845 | 5235 ft | 343 kts | 320° |
| 2026-04-26 15:30 | 47.46086 | 8.36462 | 5240 ft | 350 kts | 319° |
| 2026-04-26 15:30 | 47.47901 | 8.34015 | 5206 ft | 355 kts | 319° |
| 2026-04-26 15:31 | 47.49697 | 8.31570 | 5220 ft | 359 kts | 319° |
| 2026-04-26 15:31 | 47.53398 | 8.26493 | 5092 ft | 367 kts | 319° |
| 2026-04-26 15:31 | 47.55214 | 8.23982 | 4907 ft | 347 kts | 319° |
| 2026-04-26 15:32 | 47.57493 | 8.20830 | 4637 ft | 324 kts | 318° |
| 2026-04-26 15:32 | 47.60294 | 8.17552 | 4351 ft | 297 kts | 339° |
| 2026-04-26 15:32 | 47.62249 | 8.17064 | 4274 ft | 278 kts | 7° |
| 2026-04-26 15:33 | 47.63977 | 8.17919 | 4251 ft | 259 kts | 34° |
| 2026-04-26 15:33 | 47.65306 | 8.19611 | 4241 ft | 245 kts | 46° |
| 2026-04-26 15:33 | 47.66438 | 8.21415 | 4228 ft | 232 kts | 49° |
| 2026-04-26 15:33 | 47.67449 | 8.23193 | 4220 ft | 220 kts | 58° |
| 2026-04-26 15:34 | 47.67858 | 8.25265 | 4290 ft | 207 kts | 92° |
| 2026-04-26 15:34 | 47.67340 | 8.27160 | 4296 ft | 198 kts | 129° |
| 2026-04-26 15:34 | 47.66386 | 8.28580 | 4241 ft | 195 kts | 133° |
| 2026-04-26 15:34 | 47.65396 | 8.29979 | 4195 ft | 198 kts | 134° |
| 2026-04-26 15:35 | 47.64375 | 8.31392 | 4230 ft | 204 kts | 135° |
| 2026-04-26 15:35 | 47.63330 | 8.32818 | 4193 ft | 205 kts | 134° |
| 2026-04-26 15:35 | 47.62286 | 8.34278 | 4202 ft | 205 kts | 133° |
| 2026-04-26 15:35 | 47.61269 | 8.35710 | 4253 ft | 204 kts | 132° |
| 2026-04-26 15:36 | 47.60234 | 8.37136 | 4227 ft | 202 kts | 134° |
| 2026-04-26 15:36 | 47.59215 | 8.38526 | 4203 ft | 197 kts | 134° |
| 2026-04-26 15:36 | 47.58219 | 8.39893 | 4163 ft | 195 kts | 134° |
| 2026-04-26 15:36 | 47.57189 | 8.41312 | 3883 ft | 209 kts | 134° |
| 2026-04-26 15:37 | 47.56100 | 8.42804 | 3592 ft | 214 kts | 134° |
| 2026-04-26 15:37 | 47.55018 | 8.44276 | 3327 ft | 214 kts | 135° |
| 2026-04-26 15:37 | 47.53921 | 8.45775 | 2987 ft | 215 kts | 134° |
| 2026-04-26 15:37 | 47.52822 | 8.47274 | 2712 ft | 214 kts | 134° |
| 2026-04-26 15:38 | 47.51766 | 8.48725 | 2405 ft | 196 kts | 134° |
| 2026-04-26 15:38 | 47.50829 | 8.50014 | 2111 ft | 173 kts | 135° |
| 2026-04-26 15:38 | 47.49995 | 8.51161 | 1883 ft | 155 kts | 134° |
| 2026-04-26 15:38 | 47.49236 | 8.52197 | 1711 ft | 143 kts | 135° |
| 2026-04-26 15:39 | 47.48529 | 8.53167 | 1529 ft | 136 kts | 135° |
| 2026-04-26 15:39 | 47.47849 | 8.54097 | 1408 ft | 126 kts | 136° |
| 2026-04-26 15:39 | 47.47317 | 8.54828 | 1402 ft | 63 kts | 137° |
| 2026-04-26 15:39 | 47.47236 | 8.54939 | 1399 ft | 38 kts | 136° |
| 2026-04-26 15:40 | 47.46964 | 8.55312 | 1396 ft | 25 kts | 138° |
| 2026-04-26 15:40 | 47.46846 | 8.55472 | 1404 ft | 20 kts | 136° |
| 2026-04-26 15:40 | 47.46734 | 8.55600 | 1401 ft | 24 kts | 150° |
| 2026-04-26 15:40 | 47.46560 | 8.55693 | 1399 ft | 28 kts | 167° |
| 2026-04-26 15:41 | 47.46370 | 8.55781 | 1406 ft | 27 kts | 146° |
| 2026-04-26 15:41 | 47.46251 | 8.55943 | 1402 ft | 20 kts | 135° |
| 2026-04-26 15:41 | 47.46135 | 8.55999 | 1397 ft | 18 kts | 187° |
| 2026-04-26 15:41 | 47.45994 | 8.55979 | 1397 ft | 21 kts | 185° |
| 2026-04-26 15:42 | 47.45888 | 8.55930 | 1397 ft | 17 kts | 200° |
| 2026-04-26 15:42 | 47.45749 | 8.55870 | 1400 ft | 22 kts | 184° |
| 2026-04-26 15:42 | 47.45584 | 8.55846 | 1402 ft | 25 kts | 186° |
| 2026-04-26 15:42 | 47.45492 | 8.55702 | 1405 ft | 17 kts | 293° |
| 2026-04-26 15:43 | 47.45511 | 8.55549 | 1398 ft | 15 kts | 272° |
| 2026-04-26 15:43 | 47.45448 | 8.55459 | 1397 ft | 16 kts | 163° |
| 2026-04-26 15:43 | 47.45266 | 8.55700 | 1397 ft | 21 kts | 96° |
| 2026-04-26 15:44 | 47.45252 | 8.55909 | 1397 ft | 20 kts | 97° |
| 2026-04-26 15:44 | 47.45295 | 8.56014 | 1397 ft | 5 kts | 8° |
| 2026-04-26 15:44 | 47.45323 | 8.56018 | 1399 ft | 0 kts | 5° |